sensor_id;sensor_type;location;lat;lon;timestamp;temperature;humidity
12901;DHT22;6518;50.930;5.344;2024-03-02T00:01:19;9.90;90.10
12901;DHT22;6518;50.930;5.344;2024-03-02T00:03:46;9.60;91.20
12901;DHT22;6518;50.930;5.344;2024-03-02T00:06:13;9.40;91.90
12901;DHT22;6518;50.930;5.344;2024-03-02T00:08:40;9.20;92.20
12901;DHT22;6518;50.930;5.344;2024-03-02T00:11:07;9.20;92.50
12901;DHT22;6518;50.930;5.344;2024-03-02T00:13:36;9.10;93.00
12901;DHT22;6518;50.930;5.344;2024-03-02T00:16:05;9.10;93.20
12901;DHT22;6518;50.930;5.344;2024-03-02T00:18:34;9.10;93.60
12901;DHT22;6518;50.930;5.344;2024-03-02T00:21:02;9.00;93.70
12901;DHT22;6518;50.930;5.344;2024-03-02T00:23:30;9.00;93.70
12901;DHT22;6518;50.930;5.344;2024-03-02T00:25:58;9.10;94.00
12901;DHT22;6518;50.930;5.344;2024-03-02T00:28:26;9.10;94.40
12901;DHT22;6518;50.930;5.344;2024-03-02T00:30:59;9.00;94.80
12901;DHT22;6518;50.930;5.344;2024-03-02T00:33:31;9.00;95.10
12901;DHT22;6518;50.930;5.344;2024-03-02T00:35:59;9.00;95.60
12901;DHT22;6518;50.930;5.344;2024-03-02T00:38:27;9.00;96.30
12901;DHT22;6518;50.930;5.344;2024-03-02T00:40:55;9.00;96.90
12901;DHT22;6518;50.930;5.344;2024-03-02T00:43:58;9.00;97.40
12901;DHT22;6518;50.930;5.344;2024-03-02T00:46:28;9.00;98.50
12901;DHT22;6518;50.930;5.344;2024-03-02T00:48:57;9.00;99.10
12901;DHT22;6518;50.930;5.344;2024-03-02T00:51:26;9.10;99.60
12901;DHT22;6518;50.930;5.344;2024-03-02T00:53:55;9.10;99.90
12901;DHT22;6518;50.930;5.344;2024-03-02T00:56:22;9.00;99.90
12901;DHT22;6518;50.930;5.344;2024-03-02T00:58:50;9.00;99.90
12901;DHT22;6518;50.930;5.344;2024-03-02T01:01:16;9.00;99.90
12901;DHT22;6518;50.930;5.344;2024-03-02T01:03:43;9.10;99.90
12901;DHT22;6518;50.930;5.344;2024-03-02T01:06:11;9.00;99.90
12901;DHT22;6518;50.930;5.344;2024-03-02T01:08:39;9.10;99.90
12901;DHT22;6518;50.930;5.344;2024-03-02T01:11:06;9.10;99.90
12901;DHT22;6518;50.930;5.344;2024-03-02T01:13:34;9.10;99.90
12901;DHT22;6518;50.930;5.344;2024-03-02T01:16:01;9.10;99.90
12901;DHT22;6518;50.930;5.344;2024-03-02T01:18:28;9.10;99.90
12901;DHT22;6518;50.930;5.344;2024-03-02T01:20:55;9.10;99.90
12901;DHT22;6518;50.930;5.344;2024-03-02T01:23:22;9.10;99.90
12901;DHT22;6518;50.930;5.344;2024-03-02T01:25:51;9.10;99.90
12901;DHT22;6518;50.930;5.344;2024-03-02T01:28:18;9.10;99.90
12901;DHT22;6518;50.930;5.344;2024-03-02T01:30:46;9.00;99.90
12901;DHT22;6518;50.930;5.344;2024-03-02T01:33:13;9.00;99.90
12901;DHT22;6518;50.930;5.344;2024-03-02T01:35:40;9.00;99.90
12901;DHT22;6518;50.930;5.344;2024-03-02T01:38:06;8.90;99.90
12901;DHT22;6518;50.930;5.344;2024-03-02T01:40:34;8.90;99.90
12901;DHT22;6518;50.930;5.344;2024-03-02T01:43:03;8.90;99.90
12901;DHT22;6518;50.930;5.344;2024-03-02T01:45:30;8.90;99.90
12901;DHT22;6518;50.930;5.344;2024-03-02T01:47:58;8.90;99.90
12901;DHT22;6518;50.930;5.344;2024-03-02T01:50:26;9.00;99.90
12901;DHT22;6518;50.930;5.344;2024-03-02T01:52:53;8.90;99.90
12901;DHT22;6518;50.930;5.344;2024-03-02T01:55:20;8.90;99.90
12901;DHT22;6518;50.930;5.344;2024-03-02T01:57:47;9.00;99.90
12901;DHT22;6518;50.930;5.344;2024-03-02T02:00:16;9.00;99.90
12901;DHT22;6518;50.930;5.344;2024-03-02T02:02:44;9.00;99.90
12901;DHT22;6518;50.930;5.344;2024-03-02T02:05:11;9.00;99.90
12901;DHT22;6518;50.930;5.344;2024-03-02T02:07:38;9.00;99.90
12901;DHT22;6518;50.930;5.344;2024-03-02T02:10:05;9.00;99.90
12901;DHT22;6518;50.930;5.344;2024-03-02T02:12:32;9.00;99.90
12901;DHT22;6518;50.930;5.344;2024-03-02T02:14:59;9.00;99.90
12901;DHT22;6518;50.930;5.344;2024-03-02T02:17:28;9.00;99.90
12901;DHT22;6518;50.930;5.344;2024-03-02T02:19:55;8.90;99.90
12901;DHT22;6518;50.930;5.344;2024-03-02T02:22:23;8.90;99.90
12901;DHT22;6518;50.930;5.344;2024-03-02T02:24:50;8.80;99.90
12901;DHT22;6518;50.930;5.344;2024-03-02T02:27:16;8.80;99.90
12901;DHT22;6518;50.930;5.344;2024-03-02T02:29:43;8.80;99.90
12901;DHT22;6518;50.930;5.344;2024-03-02T02:32:10;8.80;99.90
12901;DHT22;6518;50.930;5.344;2024-03-02T02:34:37;8.80;99.90
12901;DHT22;6518;50.930;5.344;2024-03-02T02:37:04;8.80;99.90
12901;DHT22;6518;50.930;5.344;2024-03-02T02:39:33;8.80;99.90
12901;DHT22;6518;50.930;5.344;2024-03-02T02:42:00;8.70;99.90
12901;DHT22;6518;50.930;5.344;2024-03-02T02:44:28;8.80;99.90
12901;DHT22;6518;50.930;5.344;2024-03-02T02:46:55;8.70;99.90
12901;DHT22;6518;50.930;5.344;2024-03-02T02:49:22;8.70;99.90
12901;DHT22;6518;50.930;5.344;2024-03-02T02:51:49;8.70;99.90
12901;DHT22;6518;50.930;5.344;2024-03-02T02:54:16;8.70;99.90
12901;DHT22;6518;50.930;5.344;2024-03-02T02:56:44;8.60;99.90
12901;DHT22;6518;50.930;5.344;2024-03-02T02:59:11;8.60;99.90
12901;DHT22;6518;50.930;5.344;2024-03-02T03:01:38;8.60;99.90
12901;DHT22;6518;50.930;5.344;2024-03-02T03:04:05;8.60;99.90
12901;DHT22;6518;50.930;5.344;2024-03-02T03:06:32;8.60;99.90
12901;DHT22;6518;50.930;5.344;2024-03-02T03:08:59;8.60;99.90
12901;DHT22;6518;50.930;5.344;2024-03-02T03:11:26;8.60;99.90
12901;DHT22;6518;50.930;5.344;2024-03-02T03:13:54;8.60;99.90
12901;DHT22;6518;50.930;5.344;2024-03-02T03:16:21;8.60;99.90
12901;DHT22;6518;50.930;5.344;2024-03-02T03:18:48;8.60;99.90
12901;DHT22;6518;50.930;5.344;2024-03-02T03:21:18;8.60;99.90
12901;DHT22;6518;50.930;5.344;2024-03-02T03:23:45;8.60;99.90
12901;DHT22;6518;50.930;5.344;2024-03-02T03:26:12;8.60;99.90
12901;DHT22;6518;50.930;5.344;2024-03-02T03:28:39;8.60;99.90
12901;DHT22;6518;50.930;5.344;2024-03-02T03:31:07;8.50;99.90
12901;DHT22;6518;50.930;5.344;2024-03-02T03:33:34;8.50;99.90
12901;DHT22;6518;50.930;5.344;2024-03-02T03:36:01;8.50;99.90
12901;DHT22;6518;50.930;5.344;2024-03-02T03:38:29;8.50;99.90
12901;DHT22;6518;50.930;5.344;2024-03-02T03:40:56;8.50;99.90
12901;DHT22;6518;50.930;5.344;2024-03-02T03:43:23;8.50;99.90
12901;DHT22;6518;50.930;5.344;2024-03-02T03:45:50;8.50;99.90
12901;DHT22;6518;50.930;5.344;2024-03-02T03:48:18;8.50;99.90
12901;DHT22;6518;50.930;5.344;2024-03-02T03:50:45;8.50;99.90
12901;DHT22;6518;50.930;5.344;2024-03-02T03:53:12;8.50;99.90
12901;DHT22;6518;50.930;5.344;2024-03-02T03:55:40;8.50;99.90
12901;DHT22;6518;50.930;5.344;2024-03-02T03:58:07;8.50;99.90
12901;DHT22;6518;50.930;5.344;2024-03-02T04:00:34;8.50;99.90
12901;DHT22;6518;50.930;5.344;2024-03-02T04:03:01;8.50;99.90
12901;DHT22;6518;50.930;5.344;2024-03-02T04:05:29;8.50;99.90
12901;DHT22;6518;50.930;5.344;2024-03-02T04:07:56;8.50;99.90
12901;DHT22;6518;50.930;5.344;2024-03-02T04:10:23;8.50;99.90
12901;DHT22;6518;50.930;5.344;2024-03-02T04:12:50;8.50;99.90
12901;DHT22;6518;50.930;5.344;2024-03-02T04:15:17;8.50;99.90
12901;DHT22;6518;50.930;5.344;2024-03-02T04:17:45;8.50;99.90
12901;DHT22;6518;50.930;5.344;2024-03-02T04:20:11;8.50;99.90
12901;DHT22;6518;50.930;5.344;2024-03-02T04:22:40;8.40;99.90
12901;DHT22;6518;50.930;5.344;2024-03-02T04:25:08;8.40;99.90
12901;DHT22;6518;50.930;5.344;2024-03-02T04:27:35;8.40;99.90
12901;DHT22;6518;50.930;5.344;2024-03-02T04:30:03;8.30;99.90
12901;DHT22;6518;50.930;5.344;2024-03-02T04:32:31;8.30;99.90
12901;DHT22;6518;50.930;5.344;2024-03-02T04:34:58;8.30;99.90
12901;DHT22;6518;50.930;5.344;2024-03-02T04:37:25;8.20;99.90
12901;DHT22;6518;50.930;5.344;2024-03-02T04:39:53;8.20;99.90
12901;DHT22;6518;50.930;5.344;2024-03-02T04:42:20;8.20;99.90
12901;DHT22;6518;50.930;5.344;2024-03-02T04:44:48;8.20;99.90
12901;DHT22;6518;50.930;5.344;2024-03-02T04:47:15;8.20;99.90
12901;DHT22;6518;50.930;5.344;2024-03-02T04:49:42;8.20;99.90
12901;DHT22;6518;50.930;5.344;2024-03-02T04:52:09;8.30;99.90
12901;DHT22;6518;50.930;5.344;2024-03-02T04:54:35;8.30;99.90
12901;DHT22;6518;50.930;5.344;2024-03-02T04:57:24;8.30;99.90
12901;DHT22;6518;50.930;5.344;2024-03-02T04:59:51;8.20;99.90
12901;DHT22;6518;50.930;5.344;2024-03-02T05:02:18;8.20;99.90
12901;DHT22;6518;50.930;5.344;2024-03-02T05:04:45;8.20;99.90
12901;DHT22;6518;50.930;5.344;2024-03-02T05:07:14;8.10;99.90
12901;DHT22;6518;50.930;5.344;2024-03-02T05:09:42;8.10;99.90
12901;DHT22;6518;50.930;5.344;2024-03-02T05:12:10;8.00;99.90
12901;DHT22;6518;50.930;5.344;2024-03-02T05:14:56;8.00;99.90
12901;DHT22;6518;50.930;5.344;2024-03-02T05:17:23;7.90;99.90
12901;DHT22;6518;50.930;5.344;2024-03-02T05:19:49;7.90;99.90
12901;DHT22;6518;50.930;5.344;2024-03-02T05:22:16;7.90;99.90
12901;DHT22;6518;50.930;5.344;2024-03-02T05:24:43;7.90;99.90
12901;DHT22;6518;50.930;5.344;2024-03-02T05:27:13;7.80;99.90
12901;DHT22;6518;50.930;5.344;2024-03-02T05:29:40;7.80;99.90
12901;DHT22;6518;50.930;5.344;2024-03-02T05:32:08;7.80;99.90
12901;DHT22;6518;50.930;5.344;2024-03-02T05:34:35;7.80;99.90
12901;DHT22;6518;50.930;5.344;2024-03-02T05:37:02;7.80;99.90
12901;DHT22;6518;50.930;5.344;2024-03-02T05:39:29;7.70;99.90
12901;DHT22;6518;50.930;5.344;2024-03-02T05:41:56;7.80;99.90
12901;DHT22;6518;50.930;5.344;2024-03-02T05:44:22;7.70;99.90
12901;DHT22;6518;50.930;5.344;2024-03-02T05:46:49;7.80;99.90
12901;DHT22;6518;50.930;5.344;2024-03-02T05:49:20;7.80;99.90
12901;DHT22;6518;50.930;5.344;2024-03-02T05:51:46;7.70;99.90
12901;DHT22;6518;50.930;5.344;2024-03-02T05:54:13;7.70;99.90
12901;DHT22;6518;50.930;5.344;2024-03-02T05:56:40;7.70;99.90
12901;DHT22;6518;50.930;5.344;2024-03-02T05:59:07;7.70;99.90
12901;DHT22;6518;50.930;5.344;2024-03-02T06:01:38;7.70;99.90
12901;DHT22;6518;50.930;5.344;2024-03-02T06:04:05;7.70;99.90
12901;DHT22;6518;50.930;5.344;2024-03-02T06:06:33;7.70;99.90
12901;DHT22;6518;50.930;5.344;2024-03-02T06:09:00;7.70;99.90
12901;DHT22;6518;50.930;5.344;2024-03-02T06:11:28;7.70;99.90
12901;DHT22;6518;50.930;5.344;2024-03-02T06:13:55;7.70;99.90
12901;DHT22;6518;50.930;5.344;2024-03-02T06:16:22;7.60;99.90
12901;DHT22;6518;50.930;5.344;2024-03-02T06:18:48;7.60;99.90
12901;DHT22;6518;50.930;5.344;2024-03-02T06:21:15;7.70;99.90
12901;DHT22;6518;50.930;5.344;2024-03-02T06:23:43;7.70;99.90
12901;DHT22;6518;50.930;5.344;2024-03-02T06:26:10;7.70;99.90
12901;DHT22;6518;50.930;5.344;2024-03-02T06:28:38;7.60;99.90
12901;DHT22;6518;50.930;5.344;2024-03-02T06:31:04;7.70;99.90
12901;DHT22;6518;50.930;5.344;2024-03-02T06:33:31;7.60;99.90
12901;DHT22;6518;50.930;5.344;2024-03-02T06:35:58;7.70;99.90
12901;DHT22;6518;50.930;5.344;2024-03-02T06:38:25;7.70;99.90
12901;DHT22;6518;50.930;5.344;2024-03-02T06:40:53;7.70;99.90
12901;DHT22;6518;50.930;5.344;2024-03-02T06:43:21;7.70;99.90
12901;DHT22;6518;50.930;5.344;2024-03-02T06:45:48;7.70;99.90
12901;DHT22;6518;50.930;5.344;2024-03-02T06:48:15;7.70;99.90
12901;DHT22;6518;50.930;5.344;2024-03-02T06:50:45;7.70;99.90
12901;DHT22;6518;50.930;5.344;2024-03-02T06:53:13;7.80;99.90
12901;DHT22;6518;50.930;5.344;2024-03-02T06:55:43;7.80;99.90
12901;DHT22;6518;50.930;5.344;2024-03-02T06:58:11;7.90;99.90
12901;DHT22;6518;50.930;5.344;2024-03-02T07:00:38;7.90;99.90
12901;DHT22;6518;50.930;5.344;2024-03-02T07:03:05;7.90;99.90
12901;DHT22;6518;50.930;5.344;2024-03-02T07:05:31;7.90;99.90
12901;DHT22;6518;50.930;5.344;2024-03-02T07:07:58;8.00;99.90
12901;DHT22;6518;50.930;5.344;2024-03-02T07:10:27;8.00;99.90
12901;DHT22;6518;50.930;5.344;2024-03-02T07:12:54;8.00;99.90
12901;DHT22;6518;50.930;5.344;2024-03-02T07:15:22;8.00;99.90
12901;DHT22;6518;50.930;5.344;2024-03-02T07:18:04;8.00;99.90
12901;DHT22;6518;50.930;5.344;2024-03-02T07:20:31;7.90;99.90
12901;DHT22;6518;50.930;5.344;2024-03-02T07:22:58;8.00;99.90
12901;DHT22;6518;50.930;5.344;2024-03-02T07:25:25;8.00;99.90
12901;DHT22;6518;50.930;5.344;2024-03-02T07:27:52;7.90;99.90
12901;DHT22;6518;50.930;5.344;2024-03-02T07:30:19;7.90;99.90
12901;DHT22;6518;50.930;5.344;2024-03-02T07:32:50;7.90;99.90
12901;DHT22;6518;50.930;5.344;2024-03-02T07:35:17;7.90;99.90
12901;DHT22;6518;50.930;5.344;2024-03-02T07:37:44;7.90;99.90
12901;DHT22;6518;50.930;5.344;2024-03-02T07:40:12;8.00;99.90
12901;DHT22;6518;50.930;5.344;2024-03-02T07:42:40;7.90;99.90
12901;DHT22;6518;50.930;5.344;2024-03-02T07:45:07;8.00;99.90
12901;DHT22;6518;50.930;5.344;2024-03-02T07:47:35;8.00;99.90
12901;DHT22;6518;50.930;5.344;2024-03-02T07:50:04;8.00;99.90
12901;DHT22;6518;50.930;5.344;2024-03-02T07:52:31;8.10;99.90
12901;DHT22;6518;50.930;5.344;2024-03-02T07:54:58;8.20;99.90
12901;DHT22;6518;50.930;5.344;2024-03-02T07:57:25;8.30;99.90
12901;DHT22;6518;50.930;5.344;2024-03-02T07:59:52;8.40;99.90
12901;DHT22;6518;50.930;5.344;2024-03-02T08:02:19;8.50;99.90
12901;DHT22;6518;50.930;5.344;2024-03-02T08:04:46;8.60;99.90
12901;DHT22;6518;50.930;5.344;2024-03-02T08:07:14;8.60;99.90
12901;DHT22;6518;50.930;5.344;2024-03-02T08:09:41;8.80;99.90
12901;DHT22;6518;50.930;5.344;2024-03-02T08:12:08;8.80;99.90
12901;DHT22;6518;50.930;5.344;2024-03-02T08:14:35;9.00;99.90
12901;DHT22;6518;50.930;5.344;2024-03-02T08:17:02;9.00;99.90
12901;DHT22;6518;50.930;5.344;2024-03-02T08:19:35;9.10;99.90
12901;DHT22;6518;50.930;5.344;2024-03-02T08:22:02;9.20;99.90
12901;DHT22;6518;50.930;5.344;2024-03-02T08:24:30;9.20;99.90
12901;DHT22;6518;50.930;5.344;2024-03-02T08:26:57;9.30;99.90
12901;DHT22;6518;50.930;5.344;2024-03-02T08:29:24;9.30;99.90
12901;DHT22;6518;50.930;5.344;2024-03-02T08:31:51;9.40;99.90
12901;DHT22;6518;50.930;5.344;2024-03-02T08:34:18;9.40;99.90
12901;DHT22;6518;50.930;5.344;2024-03-02T08:36:46;9.50;99.90
12901;DHT22;6518;50.930;5.344;2024-03-02T08:39:13;9.50;99.90
12901;DHT22;6518;50.930;5.344;2024-03-02T08:41:42;9.50;99.90
12901;DHT22;6518;50.930;5.344;2024-03-02T08:44:09;9.50;99.90
12901;DHT22;6518;50.930;5.344;2024-03-02T08:46:36;9.50;99.90
12901;DHT22;6518;50.930;5.344;2024-03-02T08:49:03;9.50;99.70
12901;DHT22;6518;50.930;5.344;2024-03-02T08:51:30;9.60;99.90
12901;DHT22;6518;50.930;5.344;2024-03-02T08:53:57;9.60;99.10
12901;DHT22;6518;50.930;5.344;2024-03-02T08:56:24;9.70;98.90
12901;DHT22;6518;50.930;5.344;2024-03-02T08:58:53;9.70;98.00
12901;DHT22;6518;50.930;5.344;2024-03-02T09:01:20;9.70;97.80
12901;DHT22;6518;50.930;5.344;2024-03-02T09:03:47;9.70;96.70
12901;DHT22;6518;50.930;5.344;2024-03-02T09:06:15;9.80;96.10
12901;DHT22;6518;50.930;5.344;2024-03-02T09:08:43;9.80;96.30
12901;DHT22;6518;50.930;5.344;2024-03-02T09:11:10;9.90;95.50
12901;DHT22;6518;50.930;5.344;2024-03-02T09:13:38;9.90;95.40
12901;DHT22;6518;50.930;5.344;2024-03-02T09:16:06;10.00;94.90
12901;DHT22;6518;50.930;5.344;2024-03-02T09:18:36;10.00;94.60
12901;DHT22;6518;50.930;5.344;2024-03-02T09:21:04;10.10;94.60
12901;DHT22;6518;50.930;5.344;2024-03-02T09:23:31;10.10;94.10
12901;DHT22;6518;50.930;5.344;2024-03-02T09:25:58;10.20;94.00
12901;DHT22;6518;50.930;5.344;2024-03-02T09:28:25;10.30;93.90
12901;DHT22;6518;50.930;5.344;2024-03-02T09:30:52;10.30;93.40
12901;DHT22;6518;50.930;5.344;2024-03-02T09:33:20;10.40;93.40
12901;DHT22;6518;50.930;5.344;2024-03-02T09:35:47;10.40;92.80
12901;DHT22;6518;50.930;5.344;2024-03-02T09:38:15;10.50;92.80
12901;DHT22;6518;50.930;5.344;2024-03-02T09:40:42;10.60;92.70
12901;DHT22;6518;50.930;5.344;2024-03-02T09:43:09;10.70;91.20
12901;DHT22;6518;50.930;5.344;2024-03-02T09:45:36;10.60;91.40
12901;DHT22;6518;50.930;5.344;2024-03-02T09:48:03;10.50;91.20
12901;DHT22;6518;50.930;5.344;2024-03-02T09:50:32;10.50;91.30
12901;DHT22;6518;50.930;5.344;2024-03-02T09:52:59;10.60;91.30
12901;DHT22;6518;50.930;5.344;2024-03-02T09:55:26;10.70;91.70
12901;DHT22;6518;50.930;5.344;2024-03-02T09:57:53;10.80;91.50
12901;DHT22;6518;50.930;5.344;2024-03-02T10:00:20;10.80;90.90
12901;DHT22;6518;50.930;5.344;2024-03-02T10:02:47;10.80;90.40
12901;DHT22;6518;50.930;5.344;2024-03-02T10:05:23;10.80;90.40
12901;DHT22;6518;50.930;5.344;2024-03-02T10:07:58;10.90;90.50
12901;DHT22;6518;50.930;5.344;2024-03-02T10:10:34;11.00;90.40
12901;DHT22;6518;50.930;5.344;2024-03-02T10:13:06;11.10;90.30
12901;DHT22;6518;50.930;5.344;2024-03-02T10:15:33;11.20;90.20
12901;DHT22;6518;50.930;5.344;2024-03-02T10:18:00;11.20;89.90
12901;DHT22;6518;50.930;5.344;2024-03-02T10:20:27;11.30;89.50
12901;DHT22;6518;50.930;5.344;2024-03-02T10:22:54;11.30;89.70
12901;DHT22;6518;50.930;5.344;2024-03-02T10:25:32;11.30;89.00
12901;DHT22;6518;50.930;5.344;2024-03-02T10:28:00;11.40;88.20
12901;DHT22;6518;50.930;5.344;2024-03-02T10:30:27;11.40;87.50
12901;DHT22;6518;50.930;5.344;2024-03-02T10:32:55;11.40;87.30
12901;DHT22;6518;50.930;5.344;2024-03-02T10:35:22;11.50;88.10
12901;DHT22;6518;50.930;5.344;2024-03-02T10:37:52;11.60;87.20
12901;DHT22;6518;50.930;5.344;2024-03-02T10:40:21;11.60;86.40
12901;DHT22;6518;50.930;5.344;2024-03-02T10:42:50;11.60;84.50
12901;DHT22;6518;50.930;5.344;2024-03-02T10:45:20;11.70;85.10
12901;DHT22;6518;50.930;5.344;2024-03-02T10:47:48;11.80;84.60
12901;DHT22;6518;50.930;5.344;2024-03-02T10:50:16;11.90;84.50
12901;DHT22;6518;50.930;5.344;2024-03-02T10:52:43;12.00;84.90
12901;DHT22;6518;50.930;5.344;2024-03-02T10:55:10;12.20;83.90
12901;DHT22;6518;50.930;5.344;2024-03-02T10:57:41;12.30;82.10
12901;DHT22;6518;50.930;5.344;2024-03-02T11:00:12;12.30;82.70
12901;DHT22;6518;50.930;5.344;2024-03-02T11:02:45;12.30;82.30
12901;DHT22;6518;50.930;5.344;2024-03-02T11:05:23;12.40;81.40
12901;DHT22;6518;50.930;5.344;2024-03-02T11:07:56;12.40;80.60
12901;DHT22;6518;50.930;5.344;2024-03-02T11:10:24;12.50;81.10
12901;DHT22;6518;50.930;5.344;2024-03-02T11:12:58;12.60;80.20
12901;DHT22;6518;50.930;5.344;2024-03-02T11:15:29;12.70;79.10
12901;DHT22;6518;50.930;5.344;2024-03-02T11:17:57;12.70;78.00
12901;DHT22;6518;50.930;5.344;2024-03-02T11:20:24;12.70;78.10
12901;DHT22;6518;50.930;5.344;2024-03-02T11:22:52;12.70;77.60
12901;DHT22;6518;50.930;5.344;2024-03-02T11:25:25;12.70;75.80
12901;DHT22;6518;50.930;5.344;2024-03-02T11:28:00;12.80;77.50
12901;DHT22;6518;50.930;5.344;2024-03-02T11:30:51;12.80;76.80
12901;DHT22;6518;50.930;5.344;2024-03-02T11:33:25;12.90;75.70
12901;DHT22;6518;50.930;5.344;2024-03-02T11:35:53;12.90;74.50
12901;DHT22;6518;50.930;5.344;2024-03-02T11:38:20;12.80;75.50
12901;DHT22;6518;50.930;5.344;2024-03-02T11:40:47;12.80;75.30
12901;DHT22;6518;50.930;5.344;2024-03-02T11:43:14;12.90;76.10
12901;DHT22;6518;50.930;5.344;2024-03-02T11:45:42;12.90;75.10
12901;DHT22;6518;50.930;5.344;2024-03-02T11:48:14;12.90;74.50
12901;DHT22;6518;50.930;5.344;2024-03-02T11:50:42;13.00;75.20
12901;DHT22;6518;50.930;5.344;2024-03-02T11:53:12;13.00;74.40
12901;DHT22;6518;50.930;5.344;2024-03-02T11:55:40;13.00;74.20
12901;DHT22;6518;50.930;5.344;2024-03-02T11:58:09;13.10;73.80
12901;DHT22;6518;50.930;5.344;2024-03-02T12:00:36;13.10;74.30
12901;DHT22;6518;50.930;5.344;2024-03-02T12:03:05;13.20;73.90
12901;DHT22;6518;50.930;5.344;2024-03-02T12:05:36;13.20;74.30
12901;DHT22;6518;50.930;5.344;2024-03-02T12:08:05;13.20;73.20
12901;DHT22;6518;50.930;5.344;2024-03-02T12:10:33;13.30;74.00
12901;DHT22;6518;50.930;5.344;2024-03-02T12:13:01;13.40;73.20
12901;DHT22;6518;50.930;5.344;2024-03-02T12:15:30;13.50;72.90
12901;DHT22;6518;50.930;5.344;2024-03-02T12:17:59;13.60;73.60
12901;DHT22;6518;50.930;5.344;2024-03-02T12:20:28;13.60;72.40
12901;DHT22;6518;50.930;5.344;2024-03-02T12:22:59;13.60;72.40
12901;DHT22;6518;50.930;5.344;2024-03-02T12:25:26;13.70;72.20
12901;DHT22;6518;50.930;5.344;2024-03-02T12:27:54;13.70;72.00
12901;DHT22;6518;50.930;5.344;2024-03-02T12:30:22;13.80;72.40
12901;DHT22;6518;50.930;5.344;2024-03-02T12:32:50;13.90;71.70
12901;DHT22;6518;50.930;5.344;2024-03-02T12:35:18;13.90;71.70
12901;DHT22;6518;50.930;5.344;2024-03-02T12:37:47;14.00;72.30
12901;DHT22;6518;50.930;5.344;2024-03-02T12:40:16;14.00;71.00
12901;DHT22;6518;50.930;5.344;2024-03-02T12:42:44;14.10;71.50
12901;DHT22;6518;50.930;5.344;2024-03-02T12:45:11;14.00;70.70
12901;DHT22;6518;50.930;5.344;2024-03-02T12:47:40;14.10;71.10
12901;DHT22;6518;50.930;5.344;2024-03-02T12:50:08;14.10;71.20
12901;DHT22;6518;50.930;5.344;2024-03-02T12:52:36;14.10;71.30
12901;DHT22;6518;50.930;5.344;2024-03-02T12:55:04;14.00;71.30
12901;DHT22;6518;50.930;5.344;2024-03-02T12:57:34;14.20;71.20
12901;DHT22;6518;50.930;5.344;2024-03-02T13:00:02;14.10;71.30
12901;DHT22;6518;50.930;5.344;2024-03-02T13:02:35;14.10;70.70
12901;DHT22;6518;50.930;5.344;2024-03-02T13:05:03;14.10;70.60
12901;DHT22;6518;50.930;5.344;2024-03-02T13:07:30;14.10;70.60
12901;DHT22;6518;50.930;5.344;2024-03-02T13:10:00;14.20;71.10
12901;DHT22;6518;50.930;5.344;2024-03-02T13:12:28;14.30;71.60
12901;DHT22;6518;50.930;5.344;2024-03-02T13:14:58;14.30;71.60
12901;DHT22;6518;50.930;5.344;2024-03-02T13:17:25;14.40;70.80
12901;DHT22;6518;50.930;5.344;2024-03-02T13:19:53;14.40;70.80
12901;DHT22;6518;50.930;5.344;2024-03-02T13:22:20;14.40;70.30
12901;DHT22;6518;50.930;5.344;2024-03-02T13:24:47;14.40;70.70
12901;DHT22;6518;50.930;5.344;2024-03-02T13:27:14;14.40;69.50
12901;DHT22;6518;50.930;5.344;2024-03-02T13:29:41;14.30;69.40
12901;DHT22;6518;50.930;5.344;2024-03-02T13:32:09;14.40;69.40
12901;DHT22;6518;50.930;5.344;2024-03-02T13:34:36;14.40;70.00
12901;DHT22;6518;50.930;5.344;2024-03-02T13:37:03;14.40;70.30
12901;DHT22;6518;50.930;5.344;2024-03-02T13:39:31;14.40;70.10
12901;DHT22;6518;50.930;5.344;2024-03-02T13:41:59;14.40;70.20
12901;DHT22;6518;50.930;5.344;2024-03-02T13:44:30;14.40;69.30
12901;DHT22;6518;50.930;5.344;2024-03-02T13:46:58;14.40;70.00
12901;DHT22;6518;50.930;5.344;2024-03-02T13:49:27;14.30;70.10
12901;DHT22;6518;50.930;5.344;2024-03-02T13:51:59;14.30;70.30
12901;DHT22;6518;50.930;5.344;2024-03-02T13:54:28;14.30;70.40
12901;DHT22;6518;50.930;5.344;2024-03-02T13:56:55;14.40;70.80
12901;DHT22;6518;50.930;5.344;2024-03-02T13:59:23;14.30;70.90
12901;DHT22;6518;50.930;5.344;2024-03-02T14:01:51;14.40;71.10
12901;DHT22;6518;50.930;5.344;2024-03-02T14:04:19;14.40;71.20
12901;DHT22;6518;50.930;5.344;2024-03-02T14:06:47;14.40;71.20
12901;DHT22;6518;50.930;5.344;2024-03-02T14:09:14;14.50;71.50
12901;DHT22;6518;50.930;5.344;2024-03-02T14:11:41;14.60;71.50
12901;DHT22;6518;50.930;5.344;2024-03-02T14:14:08;14.70;71.00
12901;DHT22;6518;50.930;5.344;2024-03-02T14:16:35;14.70;70.50
12901;DHT22;6518;50.930;5.344;2024-03-02T14:19:02;14.80;70.70
12901;DHT22;6518;50.930;5.344;2024-03-02T14:21:30;14.80;70.70
12901;DHT22;6518;50.930;5.344;2024-03-02T14:23:58;14.80;70.80
12901;DHT22;6518;50.930;5.344;2024-03-02T14:26:25;14.90;70.80
12901;DHT22;6518;50.930;5.344;2024-03-02T14:28:52;14.80;70.10
12901;DHT22;6518;50.930;5.344;2024-03-02T14:31:20;14.70;70.30
12901;DHT22;6518;50.930;5.344;2024-03-02T14:33:47;14.60;70.60
12901;DHT22;6518;50.930;5.344;2024-03-02T14:36:14;14.60;70.80
12901;DHT22;6518;50.930;5.344;2024-03-02T14:38:41;14.60;71.10
12901;DHT22;6518;50.930;5.344;2024-03-02T14:41:09;14.60;71.30
12901;DHT22;6518;50.930;5.344;2024-03-02T14:43:36;14.60;71.50
12901;DHT22;6518;50.930;5.344;2024-03-02T14:46:03;14.60;71.30
12901;DHT22;6518;50.930;5.344;2024-03-02T14:48:30;14.50;71.10
12901;DHT22;6518;50.930;5.344;2024-03-02T14:50:57;14.50;70.90
12901;DHT22;6518;50.930;5.344;2024-03-02T14:53:24;14.50;71.20
12901;DHT22;6518;50.930;5.344;2024-03-02T14:55:51;14.50;71.30
12901;DHT22;6518;50.930;5.344;2024-03-02T14:58:19;14.40;71.20
12901;DHT22;6518;50.930;5.344;2024-03-02T15:00:46;14.50;71.20
12901;DHT22;6518;50.930;5.344;2024-03-02T15:03:13;14.40;71.20
12901;DHT22;6518;50.930;5.344;2024-03-02T15:05:40;14.40;71.20
12901;DHT22;6518;50.930;5.344;2024-03-02T15:08:07;14.40;71.20
12901;DHT22;6518;50.930;5.344;2024-03-02T15:10:34;14.40;70.60
12901;DHT22;6518;50.930;5.344;2024-03-02T15:13:01;14.30;70.30
12901;DHT22;6518;50.930;5.344;2024-03-02T15:15:30;14.20;70.50
12901;DHT22;6518;50.930;5.344;2024-03-02T15:17:56;14.20;71.00
12901;DHT22;6518;50.930;5.344;2024-03-02T15:20:23;14.00;71.20
12901;DHT22;6518;50.930;5.344;2024-03-02T15:22:50;13.90;71.90
12901;DHT22;6518;50.930;5.344;2024-03-02T15:25:17;13.80;72.50
12901;DHT22;6518;50.930;5.344;2024-03-02T15:27:44;13.70;72.90
12901;DHT22;6518;50.930;5.344;2024-03-02T15:30:11;13.70;73.30
12901;DHT22;6518;50.930;5.344;2024-03-02T15:32:39;13.60;73.40
12901;DHT22;6518;50.930;5.344;2024-03-02T15:35:07;13.60;73.30
12901;DHT22;6518;50.930;5.344;2024-03-02T15:37:34;13.60;73.40
12901;DHT22;6518;50.930;5.344;2024-03-02T15:40:01;13.50;73.20
12901;DHT22;6518;50.930;5.344;2024-03-02T15:42:32;13.50;73.90
12901;DHT22;6518;50.930;5.344;2024-03-02T15:44:59;13.50;74.00
12901;DHT22;6518;50.930;5.344;2024-03-02T15:47:26;13.50;74.20
12901;DHT22;6518;50.930;5.344;2024-03-02T15:49:55;13.50;74.30
12901;DHT22;6518;50.930;5.344;2024-03-02T15:52:22;13.50;74.10
12901;DHT22;6518;50.930;5.344;2024-03-02T15:54:49;13.50;74.20
12901;DHT22;6518;50.930;5.344;2024-03-02T15:57:16;13.50;74.30
12901;DHT22;6518;50.930;5.344;2024-03-02T15:59:43;13.50;74.60